Time;durP1;ratioP1;P1;durP2;ratioP2;P2;SDS_P1;SDS_P2;PMS_P1;PMS_P2;Temp;Humidity;BMP_temperature;BMP_pressure;BME280_temperature;BME280_humidity;BME280_pressure;Samples;Min_cycle;Max_cycle;Signal;HPM_P1;HPM_P2
2022/04/26 03:36:34;;;;;;;0.40;0.40;;;;;;;;;;4179246;28;20321;-36
2022/04/26 03:38:37;;;;;;;0.40;0.40;;;;;;;;;;4178844;28;20103;-36
2022/04/26 03:40:38;;;;;;;0.35;0.30;;;;;;;;;;4179032;28;20060;-36
2022/04/26 03:42:39;;;;;;;0.30;0.30;;;;;;;;;;4179165;28;20053;-36
2022/04/26 03:44:41;;;;;;;0.45;0.40;;;;;;;;;;4177599;28;20706;-37
2022/04/26 03:46:42;;;;;;;0.43;0.30;;;;;;;;;;4179184;28;20053;-37
2022/04/26 03:48:44;;;;;;;0.30;0.28;;;;;;;;;;4178312;28;20338;-36
2022/04/26 03:50:45;;;;;;;0.40;0.40;;;;;;;;;;4179380;28;20122;-37
2022/04/26 03:52:46;;;;;;;0.30;0.30;;;;;;;;;;4179134;28;20049;-36
2022/04/26 03:54:48;;;;;;;1.05;0.40;;;;;;;;;;4179001;28;20480;-36
2022/04/26 03:56:49;;;;;;;0.68;0.32;;;;;;;;;;4179260;28;20057;-36
2022/04/26 03:58:50;;;;;;;0.40;0.30;;;;;;;;;;4178734;28;20053;-36
2022/04/26 04:00:51;;;;;;;0.63;0.47;;;;;;;;;;4177683;28;20061;-37
2022/04/26 04:02:52;;;;;;;0.40;0.40;;;;;;;;;;4181642;28;20168;-36
2022/04/26 04:04:53;;;;;;;0.85;0.40;;;;;;;;;;4182492;28;20084;-37
2022/04/26 04:06:55;;;;;;;0.32;0.30;;;;;;;;;;4182119;28;20508;-36
2022/04/26 04:08:56;;;;;;;0.40;0.35;;;;;;;;;;4182221;28;20096;-36
2022/04/26 04:10:57;;;;;;;0.30;0.30;;;;;;;;;;4182131;28;20053;-36
2022/04/26 04:13:00;;;;;;;0.30;0.30;;;;;;;;;;4181638;28;20106;-36
2022/04/26 04:15:01;;;;;;;0.47;0.30;;;;;;;;;;4182065;28;20098;-37
2022/04/26 04:17:03;;;;;;;0.20;0.20;;;;;;;;;;4180701;28;20053;-36
2022/04/26 04:19:19;;;;;;;0.75;0.40;;;;;;;;;;4181330;28;20065;-36
2022/04/26 04:21:21;;;;;;;0.43;0.30;;;;;;;;;;4181914;28;20071;-36
2022/04/26 04:23:23;;;;;;;0.20;0.20;;;;;;;;;;4180465;28;20492;-36
2022/04/26 04:25:24;;;;;;;0.40;0.40;;;;;;;;;;4182102;28;20057;-37
2022/04/26 04:27:25;;;;;;;0.40;0.32;;;;;;;;;;4181759;28;20390;-36
2022/04/26 04:29:26;;;;;;;0.45;0.30;;;;;;;;;;4180567;28;20102;-36
2022/04/26 04:31:27;;;;;;;0.28;0.25;;;;;;;;;;4181807;28;20106;-36
2022/04/26 04:33:29;;;;;;;0.55;0.30;;;;;;;;;;4181449;28;20052;-37
2022/04/26 04:35:31;;;;;;;0.47;0.30;;;;;;;;;;4181705;28;20546;-36
2022/04/26 04:37:33;;;;;;;1.05;0.40;;;;;;;;;;4181485;28;20064;-37
2022/04/26 04:39:34;;;;;;;0.50;0.38;;;;;;;;;;4181670;28;20053;-36
2022/04/26 04:41:37;;;;;;;0.55;0.38;;;;;;;;;;4181526;28;20508;-37
2022/04/26 04:43:39;;;;;;;0.55;0.30;;;;;;;;;;4181770;28;20053;-36
2022/04/26 04:45:40;;;;;;;0.30;0.20;;;;;;;;;;4181489;28;20505;-36
2022/04/26 04:47:42;;;;;;;0.40;0.30;;;;;;;;;;4180952;28;20053;-36
2022/04/26 04:49:44;;;;;;;0.57;0.30;;;;;;;;;;4181585;28;20061;-36
2022/04/26 04:51:45;;;;;;;0.70;0.38;;;;;;;;;;4181391;28;20049;-36
2022/04/26 04:53:46;;;;;;;0.50;0.30;;;;;;;;;;4181659;28;20115;-36
2022/04/26 04:55:47;;;;;;;0.50;0.30;;;;;;;;;;4181491;28;20126;-36
2022/04/26 04:57:48;;;;;;;0.52;0.32;;;;;;;;;;4179853;28;20102;-36
2022/04/26 04:59:50;;;;;;;0.32;0.32;;;;;;;;;;4180217;28;20083;-37
2022/04/26 05:01:51;;;;;;;0.50;0.30;;;;;;;;;;4177460;28;20068;-36
2022/04/26 05:03:52;;;;;;;0.40;0.30;;;;;;;;;;4178747;28;20496;-37
2022/04/26 05:05:53;;;;;;;0.25;0.25;;;;;;;;;;4178070;28;20057;-36
2022/04/26 05:07:54;;;;;;;0.30;0.30;;;;;;;;;;4178969;28;20486;-36
2022/04/26 05:09:55;;;;;;;0.43;0.20;;;;;;;;;;4179106;28;20057;-36
2022/04/26 05:11:57;;;;;;;0.30;0.30;;;;;;;;;;4179092;28;20605;-36
2022/04/26 05:13:58;;;;;;;0.77;0.30;;;;;;;;;;4177903;28;20061;-37
2022/04/26 05:16:00;;;;;;;0.28;0.28;;;;;;;;;;4179217;28;20361;-36
2022/04/26 05:18:01;;;;;;;0.20;0.13;;;;;;;;;;4178924;28;20053;-36
2022/04/26 05:20:04;;;;;;;0.20;0.20;;;;;;;;;;4178826;28;20075;-36
2022/04/26 05:22:09;;;;;;;0.30;0.20;;;;;;;;;;4178962;28;20106;-36
2022/04/26 05:26:30;;;;;;;0.15;0.13;;;;;;;;;;4178941;28;20106;-36
2022/04/26 05:28:32;;;;;;;0.20;0.20;;;;;;;;;;4178633;28;20056;-36
2022/04/26 05:30:33;;;;;;;0.50;0.20;;;;;;;;;;4178975;28;20103;-36
2022/04/26 05:32:34;;;;;;;0.38;0.30;;;;;;;;;;4176262;28;20569;-36
2022/04/26 05:34:35;;;;;;;0.20;0.20;;;;;;;;;;4176127;28;20053;-36
2022/04/26 05:36:37;;;;;;;0.40;0.15;;;;;;;;;;4174797;28;20060;-36
2022/04/26 05:38:38;;;;;;;0.35;0.10;;;;;;;;;;4186303;28;20052;-36
2022/04/26 05:40:39;;;;;;;0.65;0.30;;;;;;;;;;4183360;28;20048;-36
2022/04/26 05:42:41;;;;;;;0.45;0.20;;;;;;;;;;4186302;28;20106;-36
2022/04/26 05:44:42;;;;;;;0.60;0.30;;;;;;;;;;4183659;28;20053;-36
2022/04/26 05:46:43;;;;;;;0.28;0.20;;;;;;;;;;4184740;28;20052;-36
2022/04/26 05:48:45;;;;;;;0.68;0.15;;;;;;;;;;4183693;28;20154;-36
2022/04/26 05:50:46;;;;;;;0.85;0.25;;;;;;;;;;4184660;28;20060;-36
2022/04/26 05:52:47;;;;;;;1.20;0.25;;;;;;;;;;4184496;28;20377;-36
2022/04/26 05:54:48;;;;;;;0.43;0.20;;;;;;;;;;4180858;28;20049;-36
2022/04/26 05:56:52;;;;;;;0.25;0.10;;;;;;;;;;4186497;28;20557;-36
2022/04/26 05:58:53;;;;;;;1.60;0.17;;;;;;;;;;4182486;28;20095;-36
2022/04/26 06:00:56;;;;;;;0.10;0.10;;;;;;;;;;4182659;28;20402;-36
2022/04/26 06:02:57;;;;;;;0.50;0.30;;;;;;;;;;4184017;28;20110;-36
2022/04/26 06:04:58;;;;;;;1.15;0.45;;;;;;;;;;4186003;28;20135;-36
2022/04/26 06:07:00;;;;;;;2.35;0.20;;;;;;;;;;4185201;28;20431;-35
2022/04/26 06:09:03;;;;;;;1.00;0.32;;;;;;;;;;4183673;28;20053;-36
2022/04/26 06:11:04;;;;;;;0.57;0.30;;;;;;;;;;4172364;28;20107;-35
2022/04/26 06:13:05;;;;;;;2.50;0.25;;;;;;;;;;4166095;28;20078;-36
2022/04/26 06:15:07;;;;;;;2.53;0.30;;;;;;;;;;4171865;28;20052;-35
2022/04/26 06:17:08;;;;;;;1.90;0.30;;;;;;;;;;4176356;28;20061;-35
2022/04/26 06:19:10;;;;;;;2.13;0.40;;;;;;;;;;4170136;28;20057;-36
2022/04/26 06:21:11;;;;;;;3.50;0.20;;;;;;;;;;4177402;28;20049;-35
2022/04/26 06:23:13;;;;;;;1.10;0.32;;;;;;;;;;4172458;28;20061;-35
2022/04/26 06:25:14;;;;;;;1.67;0.28;;;;;;;;;;4177598;28;20661;-36
2022/04/26 06:27:15;;;;;;;4.55;0.30;;;;;;;;;;4175736;28;20127;-36
2022/04/26 06:29:16;;;;;;;1.50;0.20;;;;;;;;;;4175745;28;20044;-36
2022/04/26 06:31:17;;;;;;;2.10;0.32;;;;;;;;;;4165007;28;20582;-36
2022/04/26 06:33:19;;;;;;;2.35;0.20;;;;;;;;;;4168934;28;20052;-36
2022/04/26 06:35:20;;;;;;;1.02;0.22;;;;;;;;;;4177458;28;20060;-35
2022/04/26 06:37:23;;;;;;;1.05;0.20;;;;;;;;;;4176509;28;20056;-36
2022/04/26 06:39:24;;;;;;;2.55;0.28;;;;;;;;;;4167822;28;20049;-36
2022/04/26 06:41:25;;;;;;;1.35;0.20;;;;;;;;;;4169056;28;20068;-37
2022/04/26 06:43:29;;;;;;;0.10;0.10;;;;;;;;;;4157120;28;20107;-36
2022/04/26 06:45:30;;;;;;;1.10;0.30;;;;;;;;;;4162449;28;20650;-35
2022/04/26 06:47:32;;;;;;;2.65;0.30;;;;;;;;;;4164845;28;20118;-35
2022/04/26 06:49:33;;;;;;;0.20;0.20;;;;;;;;;;4172194;28;20057;-36
2022/04/26 06:51:38;;;;;;;0.93;0.30;;;;;;;;;;4174886;28;20052;-37
2022/04/26 06:53:39;;;;;;;1.65;0.20;;;;;;;;;;4159572;28;20053;-37
2022/04/26 06:55:40;;;;;;;1.67;0.30;;;;;;;;;;4175549;28;20525;-36
2022/04/26 06:57:42;;;;;;;2.42;0.20;;;;;;;;;;4172797;28;20068;-37
2022/04/26 06:59:43;;;;;;;1.20;0.45;;;;;;;;;;4158245;28;20061;-36
2022/04/26 07:01:45;;;;;;;0.22;0.15;;;;;;;;;;4161510;28;20052;-37
2022/04/26 07:03:47;;;;;;;1.02;0.20;;;;;;;;;;4157112;28;20061;-37
2022/04/26 07:05:51;;;;;;;1.25;0.10;;;;;;;;;;4169614;28;20060;-37
2022/04/26 07:07:52;;;;;;;1.75;0.20;;;;;;;;;;4162985;28;20384;-38
2022/04/26 07:09:54;;;;;;;0.47;0.10;;;;;;;;;;4166013;28;20431;-37
2022/04/26 07:11:55;;;;;;;0.40;0.10;;;;;;;;;;4170397;28;20061;-37
2022/04/26 07:13:57;;;;;;;0.70;0.45;;;;;;;;;;4164167;28;20067;-36
2022/04/26 07:15:58;;;;;;;1.27;0.22;;;;;;;;;;4168872;28;20057;-36
2022/04/26 07:17:59;;;;;;;0.57;0.40;;;;;;;;;;4170710;28;20091;-35
2022/04/26 07:20:01;;;;;;;0.82;0.10;;;;;;;;;;4170708;28;20103;-36
2022/04/26 07:22:03;;;;;;;2.30;0.50;;;;;;;;;;4168097;28;20057;-36
2022/04/26 07:24:04;;;;;;;1.30;0.45;;;;;;;;;;4162899;28;21746;-36
2022/04/26 07:26:06;;;;;;;2.30;0.28;;;;;;;;;;4162439;28;20057;-36
2022/04/26 07:28:07;;;;;;;2.60;0.40;;;;;;;;;;4169430;28;20067;-35
2022/04/26 07:30:10;;;;;;;2.28;0.30;;;;;;;;;;4164799;28;20061;-35
2022/04/26 07:32:12;;;;;;;0.75;0.20;;;;;;;;;;4165384;28;20209;-35
2022/04/26 07:34:23;;;;;;;0.28;0.10;;;;;;;;;;4162775;28;20060;-37
2022/04/26 07:36:24;;;;;;;0.82;0.20;;;;;;;;;;4154146;28;20056;-37
2022/04/26 07:38:26;;;;;;;0.50;0.50;;;;;;;;;;4164551;28;20154;-37
2022/04/26 07:40:27;;;;;;;2.80;0.30;;;;;;;;;;4164994;28;20121;-36
2022/04/26 07:42:28;;;;;;;0.47;0.28;;;;;;;;;;4162408;28;20413;-37
2022/04/26 07:44:30;;;;;;;0.50;0.10;;;;;;;;;;4164329;28;20503;-36
2022/04/26 07:46:31;;;;;;;0.70;0.40;;;;;;;;;;4161551;28;21044;-36
2022/04/26 07:48:34;;;;;;;2.28;0.30;;;;;;;;;;4164587;28;20056;-36
2022/04/26 07:50:36;;;;;;;0.98;0.30;;;;;;;;;;4166839;28;20053;-38
2022/04/26 07:52:37;;;;;;;3.80;0.40;;;;;;;;;;4161694;28;20061;-37
2022/04/26 07:54:39;;;;;;;1.13;0.22;;;;;;;;;;4161570;28;20569;-37
2022/04/26 07:56:40;;;;;;;1.85;0.40;;;;;;;;;;4156044;28;20490;-35
2022/04/26 07:58:41;;;;;;;1.75;0.22;;;;;;;;;;4168965;28;20841;-35
2022/04/26 08:00:42;;;;;;;2.60;0.22;;;;;;;;;;4158146;28;20057;-35
2022/04/26 08:02:44;;;;;;;0.65;0.30;;;;;;;;;;4157820;28;20057;-35
2022/04/26 08:04:45;;;;;;;0.85;0.20;;;;;;;;;;4159062;28;21477;-35
2022/04/26 08:06:47;;;;;;;0.43;0.17;;;;;;;;;;4167678;28;20056;-35
2022/04/26 08:08:48;;;;;;;1.42;0.45;;;;;;;;;;4159903;28;20244;-35
2022/04/26 08:10:49;;;;;;;1.55;0.20;;;;;;;;;;4149822;28;20439;-35
2022/04/26 08:12:50;;;;;;;0.82;0.30;;;;;;;;;;4167720;28;20049;-35
2022/04/26 08:14:51;;;;;;;1.73;0.30;;;;;;;;;;4162404;28;20113;-35
2022/04/26 08:16:54;;;;;;;1.40;0.30;;;;;;;;;;4165921;28;20053;-35
2022/04/26 08:18:55;;;;;;;0.73;0.20;;;;;;;;;;4162304;28;20451;-35
2022/04/26 08:20:56;;;;;;;1.13;0.40;;;;;;;;;;4163949;28;20133;-35
2022/04/26 08:22:57;;;;;;;2.00;0.50;;;;;;;;;;4156301;28;20057;-35
2022/04/26 08:27:25;;;;;;;0.63;0.47;;;;;;;;;;4168137;28;20048;-35
2022/04/26 08:29:26;;;;;;;0.55;0.20;;;;;;;;;;4166073;28;20154;-35
2022/04/26 08:31:28;;;;;;;1.35;0.20;;;;;;;;;;4160428;28;20053;-35
2022/04/26 08:33:34;;;;;;;1.85;0.30;;;;;;;;;;4159774;28;20102;-35
2022/04/26 08:35:36;;;;;;;0.45;0.17;;;;;;;;;;4163406;28;20518;-35
2022/04/26 08:37:38;;;;;;;0.98;0.20;;;;;;;;;;4166954;28;20061;-36
2022/04/26 08:39:39;;;;;;;0.75;0.40;;;;;;;;;;4163173;28;20435;-36
2022/04/26 08:41:41;;;;;;;1.65;0.30;;;;;;;;;;4154329;28;20143;-37
2022/04/26 08:43:42;;;;;;;1.88;0.30;;;;;;;;;;4164842;28;20103;-36
2022/04/26 08:45:45;;;;;;;1.70;0.30;;;;;;;;;;4163943;28;20115;-37
2022/04/26 08:52:27;;;;;;;1.15;0.20;;;;;;;;;;4165671;28;20174;-36
2022/04/26 08:54:30;;;;;;;0.45;0.22;;;;;;;;;;4171952;28;20583;-37
2022/04/26 08:56:32;;;;;;;0.95;0.17;;;;;;;;;;4164945;28;20057;-38
2022/04/26 08:58:34;;;;;;;0.98;0.20;;;;;;;;;;4163866;28;20696;-36
2022/04/26 09:00:35;;;;;;;2.03;0.20;;;;;;;;;;4157685;28;20064;-37
2022/04/26 09:02:38;;;;;;;1.65;0.10;;;;;;;;;;4163091;28;20064;-36
2022/04/26 09:04:39;;;;;;;3.38;0.20;;;;;;;;;;4170238;28;20093;-36
2022/04/26 09:06:44;;;;;;;1.95;0.15;;;;;;;;;;4172269;28;20579;-36
2022/04/26 09:08:47;;;;;;;0.75;0.30;;;;;;;;;;4168350;28;20098;-36
2022/04/26 09:10:49;;;;;;;2.30;0.20;;;;;;;;;;4169382;28;20093;-36
2022/04/26 09:13:12;;;;;;;2.03;0.10;;;;;;;;;;4169366;28;20053;-37
2022/04/26 09:15:16;;;;;;;0.47;0.20;;;;;;;;;;4165486;28;20064;-37
2022/04/26 09:17:19;;;;;;;0.28;0.20;;;;;;;;;;4168646;28;20104;-36
2022/04/26 09:19:21;;;;;;;1.20;0.10;;;;;;;;;;4169629;28;20103;-36
2022/04/26 09:21:26;;;;;;;1.30;0.20;;;;;;;;;;4169887;28;21022;-35
2022/04/26 09:23:29;;;;;;;1.15;0.20;;;;;;;;;;4161944;28;20134;-36
2022/04/26 09:25:30;;;;;;;4.18;0.30;;;;;;;;;;4168121;28;20061;-36
2022/04/26 09:27:37;;;;;;;1.65;0.20;;;;;;;;;;4170814;28;20451;-37
2022/04/26 09:29:45;;;;;;;0.30;0.20;;;;;;;;;;4166578;28;20524;-36
2022/04/26 09:31:59;;;;;;;1.75;0.50;;;;;;;;;;4172713;28;20068;-36
2022/04/26 09:34:13;;;;;;;1.40;0.22;;;;;;;;;;4173703;28;20049;-36
2022/04/26 09:36:17;;;;;;;0.50;0.20;;;;;;;;;;4174838;28;20423;-36
2022/04/26 09:38:23;;;;;;;1.38;0.20;;;;;;;;;;4176316;28;21007;-36
2022/04/26 09:40:35;;;;;;;0.38;0.13;;;;;;;;;;4174774;28;20101;-36
2022/04/26 09:42:36;;;;;;;0.22;0.10;;;;;;;;;;4171045;28;20423;-36
2022/04/26 09:44:41;;;;;;;1.52;0.30;;;;;;;;;;4163390;28;20800;-36
2022/04/26 09:46:50;;;;;;;0.28;0.10;;;;;;;;;;4169267;28;20405;-36
2022/04/26 09:48:52;;;;;;;1.42;0.20;;;;;;;;;;4171129;28;20049;-36
2022/04/26 09:50:53;;;;;;;0.40;0.08;;;;;;;;;;4175921;28;20045;-36
2022/04/26 09:52:55;;;;;;;2.55;0.17;;;;;;;;;;4165585;28;20467;-36
2022/04/26 09:55:00;;;;;;;0.30;0.10;;;;;;;;;;4170504;28;20053;-37
2022/04/26 09:57:04;;;;;;;1.83;0.20;;;;;;;;;;4167150;28;20057;-37
2022/04/26 09:59:05;;;;;;;0.82;0.17;;;;;;;;;;4168288;28;20820;-37
2022/04/26 10:01:06;;;;;;;1.70;0.22;;;;;;;;;;4171761;28;20049;-37
2022/04/26 10:03:09;;;;;;;0.77;0.20;;;;;;;;;;4163931;28;20053;-37
2022/04/26 10:05:13;;;;;;;0.15;0.10;;;;;;;;;;4173870;28;20053;-37
2022/04/26 10:07:14;;;;;;;1.27;0.10;;;;;;;;;;4161072;28;20064;-36
2022/04/26 10:09:16;;;;;;;2.10;0.20;;;;;;;;;;4166970;28;20102;-38
2022/04/26 10:11:17;;;;;;;1.73;0.10;;;;;;;;;;4170120;28;20049;-36
2022/04/26 10:13:38;;;;;;;1.20;0.20;;;;;;;;;;4172745;28;20049;-37
2022/04/26 10:15:40;;;;;;;0.85;0.20;;;;;;;;;;4176642;28;20053;-36
2022/04/26 10:17:50;;;;;;;0.50;0.20;;;;;;;;;;4176346;28;20048;-37
2022/04/26 10:19:51;;;;;;;0.30;0.10;;;;;;;;;;4170347;28;20118;-36
2022/04/26 10:21:52;;;;;;;0.43;0.20;;;;;;;;;;4180917;28;20056;-36
2022/04/26 10:23:56;;;;;;;0.47;0.30;;;;;;;;;;4176116;28;20862;-36
2022/04/26 10:26:24;;;;;;;0.90;0.20;;;;;;;;;;4181236;28;20099;-36
2022/04/26 10:28:28;;;;;;;1.88;0.25;;;;;;;;;;4184173;28;20056;-39
2022/04/26 10:30:51;;;;;;;0.22;0.03;;;;;;;;;;4181817;28;20098;-36
2022/04/26 10:32:52;;;;;;;0.52;0.10;;;;;;;;;;4179006;28;20122;-36
2022/04/26 10:34:54;;;;;;;1.70;0.10;;;;;;;;;;4175959;28;20057;-37
2022/04/26 10:37:01;;;;;;;1.67;0.13;;;;;;;;;;4180986;28;20105;-36
2022/04/26 10:39:05;;;;;;;0.10;0.10;;;;;;;;;;4176865;28;20071;-36
2022/04/26 10:41:08;;;;;;;0.25;0.10;;;;;;;;;;4171366;28;20095;-35
2022/04/26 10:43:09;;;;;;;0.20;0.05;;;;;;;;;;4176325;28;20415;-35
2022/04/26 10:45:11;;;;;;;0.82;0.10;;;;;;;;;;4176007;28;21557;-36
2022/04/26 10:47:14;;;;;;;1.17;0.20;;;;;;;;;;4171166;28;20102;-36
2022/04/26 10:49:24;;;;;;;1.52;0.30;;;;;;;;;;4165301;28;20468;-35
2022/04/26 10:51:35;;;;;;;1.73;0.15;;;;;;;;;;4162294;28;20196;-36
2022/04/26 10:53:45;;;;;;;0.60;0.20;;;;;;;;;;4163139;28;20061;-36
2022/04/26 10:55:49;;;;;;;1.55;0.20;;;;;;;;;;4156869;28;20065;-36
2022/04/26 10:57:51;;;;;;;0.55;0.35;;;;;;;;;;4164605;28;20101;-35
2022/04/26 10:59:56;;;;;;;1.92;0.20;;;;;;;;;;4172522;28;20304;-35
2022/04/26 11:01:58;;;;;;;1.38;0.13;;;;;;;;;;4169324;28;20065;-35
2022/04/26 11:03:59;;;;;;;2.55;0.28;;;;;;;;;;4165610;28;20061;-36
2022/04/26 11:06:05;;;;;;;2.60;0.20;;;;;;;;;;4166301;28;20061;-35
2022/04/26 11:08:06;;;;;;;2.25;0.15;;;;;;;;;;4168825;28;20057;-35
2022/04/26 11:10:09;;;;;;;3.00;0.30;;;;;;;;;;4168421;28;20053;-35
2022/04/26 11:12:10;;;;;;;1.35;0.20;;;;;;;;;;4172320;28;20107;-36
2022/04/26 11:14:11;;;;;;;0.55;0.10;;;;;;;;;;4169283;28;20061;-35
2022/04/26 11:16:13;;;;;;;2.47;0.20;;;;;;;;;;4164106;28;20489;-35
2022/04/26 11:18:21;;;;;;;0.05;0.05;;;;;;;;;;4171725;28;20445;-36
2022/04/26 11:20:24;;;;;;;0.95;0.25;;;;;;;;;;4172049;28;20631;-35
2022/04/26 11:22:27;;;;;;;0.38;0.20;;;;;;;;;;4173423;28;20060;-36
2022/04/26 11:29:21;;;;;;;;;;;;;;;;;;4174341;28;19936;-35
2022/04/26 11:31:23;;;;;;;0.10;0.10;;;;;;;;;;4169077;28;19924;-35
2022/04/26 11:33:25;;;;;;;0.73;0.25;;;;;;;;;;4170700;28;20143;-36
2022/04/26 11:35:27;;;;;;;0.20;0.10;;;;;;;;;;4174087;28;20100;-35
2022/04/26 11:37:28;;;;;;;0.43;0.20;;;;;;;;;;4169296;28;20052;-35
2022/04/26 11:39:39;;;;;;;0.30;0.10;;;;;;;;;;4168014;28;20110;-35
2022/04/26 11:41:40;;;;;;;0.30;0.10;;;;;;;;;;4174820;28;20061;-40
2022/04/26 11:43:41;;;;;;;2.05;0.30;;;;;;;;;;4173806;28;20056;-36
2022/04/26 11:45:46;;;;;;;0.17;0.17;;;;;;;;;;4169757;28;20158;-35
2022/04/26 11:47:48;;;;;;;1.98;0.20;;;;;;;;;;4169514;28;20071;-36
2022/04/26 11:49:49;;;;;;;0.10;0.10;;;;;;;;;;4173267;28;20057;-37
2022/04/26 11:52:00;;;;;;;0.32;0.10;;;;;;;;;;4173929;28;20607;-36
2022/04/26 11:54:01;;;;;;;0.20;0.10;;;;;;;;;;4166859;28;20139;-36
2022/04/26 11:56:06;;;;;;;1.70;0.10;;;;;;;;;;4169689;28;20154;-36
2022/04/26 11:58:19;;;;;;;0.10;0.00;;;;;;;;;;4169025;28;20060;-36
2022/04/26 12:00:21;;;;;;;0.05;0.05;;;;;;;;;;4151150;28;20708;-36
2022/04/26 12:02:23;;;;;;;1.65;0.22;;;;;;;;;;4139479;28;20441;-37
2022/04/26 12:04:25;;;;;;;1.00;0.20;;;;;;;;;;4152814;28;20450;-36
2022/04/26 12:06:28;;;;;;;0.25;0.10;;;;;;;;;;4172825;28;20070;-36
2022/04/26 12:08:39;;;;;;;0.22;0.10;;;;;;;;;;4151777;28;21428;-36
2022/04/26 12:10:41;;;;;;;0.32;0.10;;;;;;;;;;4166432;28;20071;-36
2022/04/26 12:13:00;;;;;;;0.17;0.10;;;;;;;;;;4168149;28;20065;-36
2022/04/26 12:15:04;;;;;;;0.70;0.10;;;;;;;;;;4166824;28;20056;-36
2022/04/26 12:17:16;;;;;;;0.35;0.20;;;;;;;;;;4164029;28;20060;-36
2022/04/26 12:19:17;;;;;;;0.68;0.20;;;;;;;;;;4162493;28;20053;-36
2022/04/26 12:21:19;;;;;;;0.10;0.03;;;;;;;;;;4167779;28;20057;-36
2022/04/26 12:23:22;;;;;;;0.10;0.10;;;;;;;;;;4175111;28;20563;-36
2022/04/26 12:25:23;;;;;;;0.55;0.17;;;;;;;;;;4171580;28;20532;-36
2022/04/26 12:27:26;;;;;;;0.43;0.10;;;;;;;;;;4173467;28;20060;-36
2022/04/26 12:29:30;;;;;;;0.30;0.10;;;;;;;;;;4174161;28;20098;-36
2022/04/26 12:31:31;;;;;;;1.65;0.10;;;;;;;;;;4168846;28;20481;-36
2022/04/26 12:33:36;;;;;;;0.55;0.10;;;;;;;;;;4175308;28;20049;-36
2022/04/26 12:35:37;;;;;;;1.70;0.10;;;;;;;;;;4170543;28;20056;-36
2022/04/26 12:37:40;;;;;;;0.55;0.20;;;;;;;;;;4168217;28;21642;-36
2022/04/26 12:39:44;;;;;;;0.95;0.10;;;;;;;;;;4172988;28;20095;-36
2022/04/26 12:41:49;;;;;;;1.25;0.20;;;;;;;;;;4176456;28;20052;-36
2022/04/26 12:44:00;;;;;;;0.38;0.20;;;;;;;;;;4174061;28;20069;-37
2022/04/26 12:46:03;;;;;;;0.30;0.10;;;;;;;;;;4174823;28;20063;-36
2022/04/26 12:50:28;;;;;;;1.08;0.10;;;;;;;;;;4176327;28;20052;-36
2022/04/26 12:52:33;;;;;;;0.20;0.10;;;;;;;;;;4173255;28;20512;-36
2022/04/26 12:54:34;;;;;;;0.50;0.10;;;;;;;;;;4173488;28;20496;-36
2022/04/26 12:56:36;;;;;;;1.85;0.13;;;;;;;;;;4172660;28;20142;-36
2022/04/26 12:58:38;;;;;;;0.10;0.10;;;;;;;;;;4175523;28;20058;-36
2022/04/26 13:00:44;;;;;;;1.52;0.20;;;;;;;;;;4172662;28;20802;-36
2022/04/26 13:02:47;;;;;;;1.27;0.20;;;;;;;;;;4164110;28;20416;-36
2022/04/26 13:04:48;;;;;;;2.17;0.22;;;;;;;;;;4168781;28;20115;-37
2022/04/26 13:06:49;;;;;;;0.20;0.15;;;;;;;;;;4172568;28;20118;-37
2022/04/26 13:08:51;;;;;;;0.60;0.17;;;;;;;;;;4168184;28;20063;-36
2022/04/26 13:10:53;;;;;;;0.22;0.20;;;;;;;;;;4174858;28;20428;-36
2022/04/26 13:12:55;;;;;;;0.52;0.20;;;;;;;;;;4177458;28;20420;-36
2022/04/26 13:14:56;;;;;;;1.23;0.43;;;;;;;;;;4172050;28;20061;-37
2022/04/26 13:16:57;;;;;;;0.73;0.17;;;;;;;;;;4170464;28;20099;-36
2022/04/26 13:18:58;;;;;;;1.63;0.10;;;;;;;;;;4161607;28;20124;-36
2022/04/26 13:21:01;;;;;;;0.28;0.20;;;;;;;;;;4176020;28;20056;-36
2022/04/26 13:23:02;;;;;;;1.02;0.20;;;;;;;;;;4179419;28;20070;-36
2022/04/26 13:25:04;;;;;;;0.90;0.40;;;;;;;;;;4176386;28;20056;-36
2022/04/26 13:27:06;;;;;;;0.40;0.38;;;;;;;;;;4176734;28;20432;-36
2022/04/26 13:29:08;;;;;;;1.02;0.20;;;;;;;;;;4179327;28;20101;-36
2022/04/26 13:31:09;;;;;;;1.58;0.30;;;;;;;;;;4177120;28;20526;-36
2022/04/26 13:33:10;;;;;;;0.63;0.40;;;;;;;;;;4170711;28;20119;-36
2022/04/26 13:35:11;;;;;;;0.93;0.32;;;;;;;;;;4176628;28;20063;-36
2022/04/26 13:37:13;;;;;;;1.70;0.30;;;;;;;;;;4178369;28;20444;-36
2022/04/26 13:39:14;;;;;;;2.33;0.45;;;;;;;;;;4179587;28;20052;-36
2022/04/26 13:41:15;;;;;;;1.10;0.30;;;;;;;;;;4163377;28;20378;-36
2022/04/26 13:43:18;;;;;;;1.95;0.32;;;;;;;;;;4168296;28;20094;-36
2022/04/26 13:45:20;;;;;;;1.10;0.38;;;;;;;;;;4172400;28;20640;-36
2022/04/26 13:47:22;;;;;;;0.75;0.40;;;;;;;;;;4169742;28;20069;-36
2022/04/26 13:49:23;;;;;;;1.55;0.40;;;;;;;;;;4175519;28;20052;-36
2022/04/26 13:51:29;;;;;;;0.77;0.40;;;;;;;;;;4174468;28;20492;-36
2022/04/26 13:53:30;;;;;;;0.68;0.30;;;;;;;;;;4175678;28;20056;-36
2022/04/26 13:55:32;;;;;;;0.57;0.17;;;;;;;;;;4175197;28;20060;-36
2022/04/26 13:57:33;;;;;;;0.80;0.35;;;;;;;;;;4173325;28;20053;-35
2022/04/26 13:59:34;;;;;;;1.48;0.68;;;;;;;;;;4176740;28;20057;-36
2022/04/26 14:01:36;;;;;;;1.13;0.30;;;;;;;;;;4175277;28;21403;-36
2022/04/26 14:03:37;;;;;;;1.27;0.20;;;;;;;;;;4170938;28;21715;-36
2022/04/26 14:05:38;;;;;;;1.88;0.20;;;;;;;;;;4173162;28;20052;-36
2022/04/26 14:07:40;;;;;;;0.30;0.20;;;;;;;;;;4172749;28;20150;-36
2022/04/26 14:09:42;;;;;;;0.52;0.32;;;;;;;;;;4174089;28;20090;-36
2022/04/26 14:11:45;;;;;;;0.68;0.20;;;;;;;;;;4174244;28;20064;-36
2022/04/26 14:23:06;;;;;;;0.70;0.22;;;;;;;;;;4177168;28;20087;-36
2022/04/26 14:25:09;;;;;;;0.30;0.30;;;;;;;;;;4177494;28;20095;-36
2022/04/26 14:27:11;;;;;;;0.22;0.20;;;;;;;;;;4180895;28;20053;-36
2022/04/26 14:29:13;;;;;;;0.20;0.20;;;;;;;;;;4179511;28;20555;-36
2022/04/26 14:31:13;;;;;;;0.68;0.22;;;;;;;;;;4176662;28;20448;-36
2022/04/26 14:33:15;;;;;;;0.55;0.20;;;;;;;;;;4179410;28;20106;-36
2022/04/26 14:35:16;;;;;;;0.20;0.20;;;;;;;;;;4175781;28;20739;-36
2022/04/26 14:37:17;;;;;;;0.17;0.10;;;;;;;;;;4180814;28;20060;-36
2022/04/26 14:39:19;;;;;;;1.88;0.30;;;;;;;;;;4173920;28;20048;-36
2022/04/26 14:41:20;;;;;;;0.40;0.20;;;;;;;;;;4177641;28;20056;-36
2022/04/26 14:43:21;;;;;;;0.47;0.20;;;;;;;;;;4171375;28;20057;-36
2022/04/26 14:45:23;;;;;;;0.45;0.20;;;;;;;;;;4175410;28;20056;-36
2022/04/26 14:47:27;;;;;;;1.95;0.30;;;;;;;;;;4169090;28;20057;-36
2022/04/26 14:49:30;;;;;;;0.52;0.20;;;;;;;;;;4167013;28;21458;-36
2022/04/26 14:51:31;;;;;;;1.45;0.35;;;;;;;;;;4179941;28;20055;-36
2022/04/26 14:53:33;;;;;;;0.30;0.25;;;;;;;;;;4180640;28;20503;-36
2022/04/26 14:55:34;;;;;;;1.27;0.20;;;;;;;;;;4179657;28;20420;-36
2022/04/26 14:57:38;;;;;;;0.35;0.25;;;;;;;;;;4182412;28;20052;-36
2022/04/26 14:59:41;;;;;;;0.40;0.40;;;;;;;;;;4171864;28;20111;-35
2022/04/26 15:01:48;;;;;;;0.52;0.10;;;;;;;;;;4169806;28;20103;-36
2022/04/26 15:03:50;;;;;;;0.63;0.20;;;;;;;;;;4174881;28;20611;-35
2022/04/26 15:05:51;;;;;;;0.45;0.20;;;;;;;;;;4178405;28;20048;-36
2022/04/26 15:10:11;;;;;;;0.47;0.28;;;;;;;;;;4184604;28;20593;-36
2022/04/26 15:16:54;;;;;;;1.02;0.38;;;;;;;;;;4174946;28;20057;-35
2022/04/26 15:18:55;;;;;;;0.43;0.25;;;;;;;;;;4181628;28;20045;-35
2022/04/26 15:20:56;;;;;;;0.30;0.22;;;;;;;;;;4184959;28;20049;-36
2022/04/26 15:23:00;;;;;;;0.52;0.20;;;;;;;;;;4175249;28;20378;-36
2022/04/26 15:25:01;;;;;;;0.40;0.22;;;;;;;;;;4184759;28;20526;-36
2022/04/26 15:27:02;;;;;;;0.20;0.20;;;;;;;;;;4176657;28;20057;-36
2022/04/26 15:29:07;;;;;;;0.40;0.20;;;;;;;;;;4183484;28;20053;-36
2022/04/26 15:31:10;;;;;;;0.30;0.20;;;;;;;;;;4177208;28;20109;-36
2022/04/26 15:33:12;;;;;;;0.20;0.10;;;;;;;;;;4175303;28;20065;-36
2022/04/26 15:35:14;;;;;;;0.28;0.10;;;;;;;;;;4184483;28;20059;-36
2022/04/26 15:37:15;;;;;;;2.20;0.20;;;;;;;;;;4171832;28;20061;-36
2022/04/26 15:39:16;;;;;;;0.73;0.28;;;;;;;;;;4170938;28;20091;-36
2022/04/26 15:41:17;;;;;;;0.13;0.10;;;;;;;;;;4178602;28;20102;-36
2022/04/26 15:43:18;;;;;;;0.35;0.20;;;;;;;;;;4181132;28;20467;-36
2022/04/26 15:45:20;;;;;;;0.40;0.25;;;;;;;;;;4176235;28;20071;-36
2022/04/26 15:47:21;;;;;;;0.57;0.20;;;;;;;;;;4184145;28;20484;-36
2022/04/26 15:49:27;;;;;;;0.45;0.25;;;;;;;;;;4176518;28;20489;-36
2022/04/26 15:51:28;;;;;;;0.40;0.20;;;;;;;;;;4178665;28;20573;-36
2022/04/26 15:53:29;;;;;;;0.15;0.15;;;;;;;;;;4174011;28;20049;-36
2022/04/26 15:55:30;;;;;;;0.30;0.20;;;;;;;;;;4174370;28;20053;-36
2022/04/26 15:57:32;;;;;;;0.20;0.20;;;;;;;;;;4176448;28;20045;-36
2022/04/26 15:59:33;;;;;;;0.50;0.40;;;;;;;;;;4182684;28;20056;-36
2022/04/26 16:01:39;;;;;;;1.88;0.40;;;;;;;;;;4179734;28;20057;-36
2022/04/26 16:03:41;;;;;;;1.10;0.40;;;;;;;;;;4173738;28;20053;-37
2022/04/26 16:05:44;;;;;;;0.25;0.20;;;;;;;;;;4178484;28;20443;-36
2022/04/26 16:07:46;;;;;;;0.88;0.20;;;;;;;;;;4178568;28;20409;-36
2022/04/26 16:21:30;;;;;;;0.20;0.20;;;;;;;;;;4185204;28;20044;-37
2022/04/26 16:23:31;;;;;;;0.22;0.22;;;;;;;;;;4182459;28;20102;-36
2022/04/26 16:25:33;;;;;;;0.85;0.20;;;;;;;;;;4182321;28;20053;-36
2022/04/26 16:27:34;;;;;;;0.40;0.40;;;;;;;;;;4190167;28;20064;-36
2022/04/26 16:29:35;;;;;;;0.30;0.30;;;;;;;;;;4184530;28;20049;-36
2022/04/26 16:31:38;;;;;;;0.20;0.20;;;;;;;;;;4185793;28;20052;-36
2022/04/26 16:33:40;;;;;;;0.47;0.30;;;;;;;;;;4181927;28;20064;-36
2022/04/26 16:35:41;;;;;;;0.10;0.10;;;;;;;;;;4188231;28;20053;-37